createdAt,value
2019-02-05T00:01:38.403Z,5.20
2019-02-05T00:04:14.982Z,5.90
2019-02-05T00:07:06.868Z,5.17
2019-02-05T00:09:38.008Z,5.33
2019-02-05T00:12:09.358Z,5.50
2019-02-05T00:14:39.780Z,5.20
2019-02-05T00:17:11.146Z,6.00
2019-02-05T00:19:43.310Z,5.27
2019-02-05T00:22:14.450Z,5.30
2019-02-05T00:24:45.707Z,5.63
2019-02-05T00:27:16.329Z,5.83
2019-02-05T00:29:47.472Z,5.37
2019-02-05T00:32:18.660Z,5.50
2019-02-05T00:34:49.029Z,6.27
2019-02-05T00:37:19.413Z,5.97
2019-02-05T00:39:49.983Z,5.77
2019-02-05T00:42:20.411Z,5.83
2019-02-05T00:44:50.782Z,5.40
2019-02-05T00:47:21.489Z,5.30
2019-02-05T00:49:52.622Z,5.37
2019-02-05T00:52:23.778Z,5.20
2019-02-05T00:54:54.968Z,5.60
2019-02-05T00:57:25.334Z,5.40
2019-02-05T00:59:56.481Z,5.17
2019-02-05T01:02:27.620Z,5.73
2019-02-05T01:04:58.051Z,5.53
2019-02-05T01:07:29.203Z,5.73
2019-02-05T01:10:00.348Z,5.37
2019-02-05T01:12:31.537Z,5.30
2019-02-05T01:17:54.727Z,6.00
2019-02-05T01:20:47.277Z,6.13
2019-02-05T01:23:21.989Z,5.73
2019-02-05T01:25:52.374Z,5.70
2019-02-05T01:28:23.526Z,5.57
2019-02-05T01:30:54.732Z,5.20
2019-02-05T01:33:25.220Z,5.83
2019-02-05T01:35:55.604Z,5.73
2019-02-05T01:38:25.981Z,5.60
2019-02-05T01:40:56.398Z,5.60
2019-02-05T01:43:26.833Z,5.90
2019-02-05T01:45:57.141Z,5.70
2019-02-05T01:48:27.498Z,5.37
2019-02-05T01:51:18.002Z,5.37
2019-02-05T01:54:07.793Z,5.50
2019-02-05T01:56:40.816Z,5.00
2019-02-05T01:59:08.741Z,5.50
2019-02-05T02:01:58.495Z,5.37
2019-02-05T02:04:28.866Z,5.10
2019-02-05T02:06:59.183Z,5.47
2019-02-05T02:09:29.667Z,5.30
2019-02-05T02:12:00.034Z,5.27
2019-02-05T02:14:30.405Z,5.60
2019-02-05T02:17:01.862Z,5.90
2019-02-05T02:19:32.419Z,5.57
2019-02-05T02:22:02.899Z,5.50
2019-02-05T02:24:33.349Z,5.30
2019-02-05T02:27:04.540Z,6.00
2019-02-05T02:29:36.143Z,5.43
2019-02-05T02:32:07.291Z,6.00
2019-02-05T02:34:38.481Z,6.10
2019-02-05T02:37:29.242Z,6.03
2019-02-05T02:40:00.427Z,5.43
2019-02-05T02:42:38.127Z,5.23
2019-02-05T02:45:12.699Z,5.93
2019-02-05T02:47:43.890Z,5.70
2019-02-05T02:50:14.272Z,6.00
2019-02-05T02:52:45.403Z,5.90
2019-02-05T02:55:16.054Z,5.77
2019-02-05T02:57:47.371Z,5.93
2019-02-05T03:00:20.372Z,5.87
2019-02-05T03:02:50.739Z,5.93
2019-02-05T03:05:21.126Z,5.83
2019-02-05T03:07:51.541Z,6.40
2019-02-05T03:10:24.423Z,6.00
2019-02-05T03:12:54.821Z,6.00
2019-02-05T03:15:25.515Z,6.00
2019-02-05T03:17:56.669Z,6.50
2019-02-05T03:20:26.987Z,6.43
2019-02-05T03:23:00.176Z,6.30
2019-02-05T03:25:31.364Z,5.77
2019-02-05T03:28:09.050Z,6.00
2019-02-05T03:30:41.901Z,6.17
2019-02-05T03:33:12.268Z,7.03
2019-02-05T03:35:42.638Z,6.30
2019-02-05T03:38:13.019Z,6.53
2019-02-05T03:40:57.479Z,6.20
2019-02-05T03:43:28.364Z,5.67
2019-02-05T03:45:58.754Z,6.37
2019-02-05T03:48:34.314Z,5.90
2019-02-05T03:51:10.860Z,5.90
2019-02-05T03:53:58.287Z,6.03
2019-02-05T03:56:54.078Z,6.50
2019-02-05T04:00:00.479Z,6.20
2019-02-05T04:02:43.402Z,5.83
2019-02-05T04:05:38.172Z,6.00
2019-02-05T04:12:01.656Z,5.63
2019-02-05T04:14:53.729Z,6.33
2019-02-05T04:17:47.225Z,5.70
2019-02-05T04:20:43.237Z,7.10
2019-02-05T04:23:43.014Z,6.10
2019-02-05T04:26:27.482Z,6.47
2019-02-05T04:29:23.946Z,6.57
2019-02-05T04:32:25.468Z,5.97
2019-02-05T04:35:15.740Z,6.47
2019-02-05T04:38:06.950Z,6.60
2019-02-05T04:41:01.423Z,6.13
2019-02-05T04:43:31.925Z,6.47
2019-02-05T04:46:42.703Z,5.43
2019-02-05T04:49:54.014Z,6.20
2019-02-05T04:53:00.139Z,6.20
2019-02-05T04:58:41.281Z,6.17
2019-02-05T05:01:28.771Z,6.47
2019-02-05T05:04:16.353Z,5.40
2019-02-05T05:06:50.233Z,5.93
2019-02-05T05:09:40.373Z,5.60
2019-02-05T05:12:10.825Z,6.53
2019-02-05T05:14:43.238Z,5.97
2019-02-05T05:17:13.558Z,5.87
2019-02-05T05:19:43.972Z,5.93
2019-02-05T05:22:14.347Z,6.30
2019-02-05T05:24:44.737Z,6.03
2019-02-05T05:27:15.170Z,6.40
2019-02-05T05:29:45.555Z,6.10
2019-02-05T05:32:18.999Z,5.50
2019-02-05T05:34:49.506Z,5.90
2019-02-05T05:37:25.951Z,5.90
2019-02-05T05:40:03.481Z,6.13
2019-02-05T05:42:34.142Z,5.70
2019-02-05T05:45:05.283Z,5.93
2019-02-05T05:47:36.474Z,6.37
2019-02-05T05:50:06.856Z,6.33
2019-02-05T05:52:38.071Z,7.10
2019-02-05T05:55:08.446Z,6.70
2019-02-05T05:57:38.829Z,7.13
2019-02-05T06:00:17.015Z,5.87
2019-02-05T06:03:06.766Z,6.07
2019-02-05T06:05:37.188Z,6.37
2019-02-05T06:08:07.506Z,6.93
2019-02-05T06:10:38.650Z,6.50
2019-02-05T06:13:09.089Z,6.47
2019-02-05T06:15:39.701Z,6.07
2019-02-05T06:18:10.278Z,5.50
2019-02-05T06:20:40.655Z,5.60
2019-02-05T06:23:11.085Z,5.90
2019-02-05T06:25:41.462Z,5.97
2019-02-05T06:28:34.607Z,6.00
2019-02-05T06:31:02.670Z,6.77
2019-02-05T06:33:33.061Z,5.63
2019-02-05T06:36:03.501Z,5.60
2019-02-05T06:38:34.582Z,6.90
2019-02-05T06:41:10.213Z,7.00
2019-02-05T06:43:40.576Z,4.90
2019-02-05T06:46:11.985Z,6.53
2019-02-05T06:48:42.559Z,6.37
2019-02-05T06:51:16.966Z,6.77
2019-02-05T06:54:08.805Z,7.10
2019-02-05T06:56:42.587Z,6.37
2019-02-05T06:59:34.384Z,7.03
2019-02-05T07:02:05.522Z,6.60
2019-02-05T07:04:36.854Z,6.60
2019-02-05T07:07:07.293Z,7.17
2019-02-05T07:09:37.703Z,6.53
2019-02-05T07:12:08.096Z,7.67
2019-02-05T07:14:38.550Z,7.30
2019-02-05T07:17:09.746Z,9.20
2019-02-05T07:19:41.154Z,8.23
2019-02-05T07:22:11.470Z,7.77
2019-02-05T07:24:41.835Z,6.83
2019-02-05T07:27:12.990Z,7.27
2019-02-05T07:29:43.374Z,6.57
2019-02-05T07:32:13.804Z,7.23
2019-02-05T07:34:44.455Z,6.50
2019-02-05T07:37:14.828Z,6.60
2019-02-05T07:39:47.265Z,7.03
2019-02-05T07:42:18.407Z,6.90
2019-02-05T07:44:49.604Z,6.60
2019-02-05T07:47:39.369Z,6.33
2019-02-05T07:52:51.560Z,7.40
2019-02-05T07:55:22.902Z,6.97
2019-02-05T07:57:54.054Z,8.13
2019-02-05T08:00:30.818Z,8.00
2019-02-05T08:03:01.198Z,8.30
2019-02-05T08:05:34.352Z,8.13
2019-02-05T08:08:04.731Z,7.70
2019-02-05T08:10:37.162Z,8.17
2019-02-05T08:13:07.580Z,7.63
2019-02-05T08:15:40.708Z,10.65
2019-02-05T08:18:13.267Z,8.13
2019-02-05T08:20:43.656Z,8.03
2019-02-05T08:23:14.804Z,6.87
2019-02-05T08:25:46.077Z,6.33
2019-02-05T08:28:17.230Z,6.87
2019-02-05T08:30:47.613Z,7.17
2019-02-05T08:33:18.110Z,7.93
2019-02-05T08:36:07.869Z,7.33
2019-02-05T08:38:38.210Z,8.13
2019-02-05T08:41:08.584Z,8.53
2019-02-05T08:43:39.672Z,8.13
2019-02-05T08:46:17.342Z,12.50
2019-02-05T08:48:47.718Z,8.93
2019-02-05T08:51:18.085Z,9.23
2019-02-05T08:53:49.248Z,12.67
2019-02-05T08:56:19.821Z,12.83
2019-02-05T08:58:50.336Z,9.33
2019-02-05T09:01:20.725Z,12.10
2019-02-05T09:03:51.121Z,10.27
2019-02-05T09:06:21.581Z,10.87
2019-02-05T09:08:51.899Z,8.77
2019-02-05T09:11:24.197Z,8.80
2019-02-05T09:13:54.764Z,8.40
2019-02-05T09:16:25.154Z,9.10
2019-02-05T09:18:57.757Z,9.30
2019-02-05T09:21:28.844Z,9.50
2019-02-05T09:23:59.346Z,8.87
2019-02-05T09:26:29.669Z,9.40
2019-02-05T09:29:00.265Z,9.60
2019-02-05T09:31:30.642Z,8.90
2019-02-05T09:34:03.123Z,8.23
2019-02-05T09:36:34.319Z,9.37
2019-02-05T09:39:04.720Z,8.80
2019-02-05T09:41:35.143Z,8.57
2019-02-05T09:44:06.282Z,8.27
2019-02-05T09:46:37.363Z,8.97
2019-02-05T09:49:12.098Z,9.03
2019-02-05T09:51:49.803Z,8.40
2019-02-05T09:54:20.197Z,9.17
2019-02-05T09:56:50.582Z,8.53
2019-02-05T09:59:20.962Z,9.60
2019-02-05T10:01:51.397Z,8.93
2019-02-05T10:04:21.790Z,8.63
2019-02-05T10:06:52.937Z,8.93
2019-02-05T10:09:23.377Z,9.10
2019-02-05T10:11:53.750Z,9.63
2019-02-05T10:14:24.139Z,10.73
2019-02-05T10:16:54.463Z,9.33
2019-02-05T10:19:25.928Z,11.47
2019-02-05T10:21:56.315Z,9.47
2019-02-05T10:24:26.717Z,8.90
2019-02-05T10:26:57.341Z,9.73
2019-02-05T10:29:27.660Z,9.67
2019-02-05T10:31:58.053Z,8.23
2019-02-05T10:34:34.226Z,7.67
2019-02-05T10:36:58.840Z,7.00
2019-02-05T10:39:29.394Z,7.03
2019-02-05T10:42:00.549Z,6.80
2019-02-05T10:44:31.772Z,7.57
2019-02-05T10:47:04.202Z,8.87
2019-02-05T10:49:34.592Z,6.73
2019-02-05T10:52:05.873Z,6.77
2019-02-05T10:54:36.211Z,6.77
2019-02-05T10:57:06.604Z,6.00
2019-02-05T10:59:37.022Z,4.77
2019-02-05T11:02:07.410Z,4.90
2019-02-05T11:04:37.789Z,4.80
2019-02-05T11:07:08.222Z,4.27
2019-02-05T11:09:38.668Z,4.43
2019-02-05T11:12:11.297Z,5.00
2019-02-05T11:14:41.759Z,4.83
2019-02-05T11:17:12.163Z,5.10
2019-02-05T11:19:42.620Z,4.90
2019-02-05T11:22:13.196Z,4.60
2019-02-05T11:24:43.577Z,5.70
2019-02-05T11:27:14.033Z,5.07
2019-02-05T11:29:44.448Z,5.30
2019-02-05T11:32:14.921Z,4.80
2019-02-05T11:34:45.302Z,6.00
2019-02-05T11:37:20.852Z,6.27
2019-02-05T11:40:16.304Z,6.17
2019-02-05T11:42:46.757Z,5.70
2019-02-05T11:48:28.160Z,5.10
2019-02-05T11:50:58.564Z,5.30
2019-02-05T11:53:29.030Z,4.70
2019-02-05T11:55:59.597Z,5.80
2019-02-05T11:58:30.011Z,6.03
2019-02-05T12:01:00.468Z,5.60
2019-02-05T12:03:30.842Z,5.43
2019-02-05T12:06:01.293Z,6.07
2019-02-05T12:08:51.764Z,5.77
2019-02-05T12:11:27.722Z,6.03
2019-02-05T12:13:58.054Z,5.60
2019-02-05T12:16:28.389Z,5.20
2019-02-05T12:18:58.846Z,6.07
2019-02-05T12:21:29.170Z,6.23
2019-02-05T12:23:59.500Z,5.47
2019-02-05T12:26:29.950Z,6.23
2019-02-05T12:29:00.341Z,7.17
2019-02-05T12:31:51.162Z,6.30
2019-02-05T12:34:21.482Z,6.03
2019-02-05T12:36:52.062Z,6.13
2019-02-05T12:39:23.451Z,6.27
2019-02-05T12:41:53.837Z,6.50
2019-02-05T12:44:24.223Z,6.17
2019-02-05T12:46:54.644Z,6.20
2019-02-05T12:49:25.078Z,6.10
2019-02-05T12:51:55.477Z,6.37
2019-02-05T12:54:31.110Z,6.53
2019-02-05T12:57:01.505Z,6.30
2019-02-05T12:59:33.693Z,6.37
2019-02-05T13:02:04.465Z,6.00
2019-02-05T13:04:37.977Z,6.27
2019-02-05T13:07:08.366Z,6.20
2019-02-05T13:09:38.963Z,6.03
2019-02-05T13:12:14.471Z,6.20
2019-02-05T13:14:44.858Z,5.70
2019-02-05T13:17:15.239Z,5.40
2019-02-05T13:19:46.697Z,5.20
2019-02-05T13:22:17.263Z,4.93
2019-02-05T13:24:47.651Z,5.13
2019-02-05T13:27:18.109Z,5.40
2019-02-05T13:29:48.557Z,5.60
2019-02-05T13:32:18.952Z,5.47
2019-02-05T13:34:49.351Z,5.23
2019-02-05T13:37:19.800Z,5.10
2019-02-05T13:39:50.369Z,4.67
2019-02-05T13:42:20.757Z,5.00
2019-02-05T13:44:51.232Z,5.67
2019-02-05T13:47:24.545Z,4.50
2019-02-05T13:49:52.010Z,4.77
2019-02-05T13:52:22.641Z,4.77
2019-02-05T13:54:55.277Z,4.27
2019-02-05T13:57:25.735Z,5.63
2019-02-05T13:59:56.068Z,6.90
2019-02-05T14:02:29.526Z,8.67
2019-02-05T14:05:00.424Z,6.57
2019-02-05T14:07:30.738Z,5.43
2019-02-05T14:10:02.075Z,4.70
2019-02-05T14:12:35.645Z,5.37
2019-02-05T14:15:06.049Z,5.00
2019-02-05T14:17:37.475Z,6.60
2019-02-05T14:20:07.914Z,9.07
2019-02-05T14:22:38.332Z,8.80
2019-02-05T14:25:08.733Z,6.43
2019-02-05T14:27:40.199Z,5.30
2019-02-05T14:33:02.023Z,4.80
2019-02-05T14:35:32.341Z,3.90
2019-02-05T14:38:02.773Z,5.30
2019-02-05T14:40:33.173Z,5.93
2019-02-05T14:43:04.340Z,7.47
2019-02-05T14:45:34.775Z,6.27
2019-02-05T14:48:05.157Z,4.57
2019-02-05T14:50:43.563Z,4.47
2019-02-05T14:53:13.874Z,4.40
2019-02-05T14:55:44.298Z,4.47
2019-02-05T14:58:14.690Z,4.87
2019-02-05T15:00:46.099Z,4.20
2019-02-05T15:03:16.532Z,4.20
2019-02-05T15:05:47.102Z,4.20
2019-02-05T15:08:17.493Z,4.40
2019-02-05T15:10:48.678Z,4.07
2019-02-05T15:13:19.048Z,4.43
2019-02-05T15:15:51.475Z,4.47
2019-02-05T15:18:21.860Z,4.40
2019-02-05T15:20:52.231Z,4.63
2019-02-05T15:23:22.599Z,4.27
2019-02-05T15:25:53.259Z,4.17
2019-02-05T15:28:24.398Z,4.20
2019-02-05T15:30:55.554Z,4.47
2019-02-05T15:33:38.988Z,4.30
2019-02-05T15:36:12.004Z,4.40
2019-02-05T15:38:45.589Z,4.73
2019-02-05T15:41:16.401Z,4.67
2019-02-05T15:43:46.794Z,5.60
2019-02-05T15:46:17.180Z,5.20
2019-02-05T15:48:47.674Z,4.20
2019-02-05T15:51:18.322Z,5.83
2019-02-05T15:53:49.420Z,4.57
2019-02-05T15:56:19.906Z,5.27
2019-02-05T15:58:50.282Z,4.93
2019-02-05T16:01:20.655Z,4.27
2019-02-05T16:03:51.980Z,5.30
2019-02-05T16:06:23.196Z,4.47
2019-02-05T16:08:57.672Z,4.60
2019-02-05T16:11:28.507Z,4.40
2019-02-05T16:13:58.889Z,6.50
2019-02-05T16:16:29.306Z,5.47
2019-02-05T16:19:01.737Z,5.43
2019-02-05T16:21:32.111Z,4.80
2019-02-05T16:24:03.463Z,4.83
2019-02-05T16:26:33.891Z,4.60
2019-02-05T16:29:04.278Z,4.47
2019-02-05T16:31:34.673Z,4.97
2019-02-05T16:34:05.862Z,4.73
2019-02-05T16:36:36.244Z,4.80
2019-02-05T16:39:07.402Z,5.47
2019-02-05T16:41:38.697Z,4.97
2019-02-05T16:44:16.466Z,5.27
2019-02-05T16:46:47.034Z,4.67
2019-02-05T16:49:24.858Z,4.70
2019-02-05T16:51:55.242Z,4.60
2019-02-05T16:54:29.702Z,5.30
2019-02-05T16:57:00.163Z,5.17
2019-02-05T16:59:30.668Z,5.10
2019-02-05T17:02:03.182Z,4.97
2019-02-05T17:04:33.579Z,6.20
2019-02-05T17:07:04.734Z,8.17
2019-02-05T17:09:35.958Z,7.27
2019-02-05T17:12:06.339Z,6.07
2019-02-05T17:14:37.863Z,8.05
2019-02-05T17:17:09.037Z,5.80
2019-02-05T17:19:39.451Z,5.40
2019-02-05T17:22:09.889Z,4.90
2019-02-05T17:24:40.347Z,4.80
2019-02-05T17:27:10.868Z,4.90
2019-02-05T17:29:41.129Z,5.43
2019-02-05T17:32:11.507Z,5.83
2019-02-05T17:34:42.096Z,5.60
2019-02-05T17:37:13.899Z,6.17
2019-02-05T17:39:51.607Z,6.00
2019-02-05T17:42:26.157Z,6.43
2019-02-05T17:44:56.534Z,6.23
2019-02-05T17:47:26.920Z,5.77
2019-02-05T17:49:57.498Z,6.67
2019-02-05T17:52:29.880Z,6.43
2019-02-05T17:55:05.461Z,6.43
2019-02-05T17:57:35.847Z,6.70
2019-02-05T18:00:19.051Z,6.07
2019-02-05T18:02:51.595Z,6.43
2019-02-05T18:05:22.066Z,7.70
2019-02-05T18:07:52.445Z,6.93
2019-02-05T18:13:09.735Z,6.53
2019-02-05T18:15:42.814Z,6.80
2019-02-05T18:18:13.212Z,6.60
2019-02-05T18:20:43.681Z,6.57
2019-02-05T18:23:14.143Z,6.70
2019-02-05T18:25:44.547Z,7.53
2019-02-05T18:28:15.165Z,7.13
2019-02-05T18:30:45.759Z,7.47
2019-02-05T18:33:16.151Z,7.47
2019-02-05T18:36:05.900Z,6.80
2019-02-05T18:38:36.298Z,6.97
2019-02-05T18:41:06.745Z,6.17
2019-02-05T18:43:59.316Z,6.50
2019-02-05T18:46:29.715Z,6.67
2019-02-05T18:49:05.040Z,7.57
2019-02-05T18:51:31.339Z,7.10
2019-02-05T18:54:01.728Z,7.20
2019-02-05T18:56:32.309Z,7.50
2019-02-05T18:59:02.942Z,8.37
2019-02-05T19:01:33.344Z,7.30
2019-02-05T19:04:10.776Z,7.70
2019-02-05T19:06:41.181Z,7.55
2019-02-05T19:09:15.958Z,6.97
2019-02-05T19:11:54.319Z,6.90
2019-02-05T19:14:34.084Z,6.37
2019-02-05T19:17:04.420Z,6.40
2019-02-05T19:19:34.817Z,6.40
2019-02-05T19:22:05.229Z,6.23
2019-02-05T19:24:39.898Z,7.17
2019-02-05T19:27:10.333Z,6.70
2019-02-05T19:29:40.725Z,7.10
2019-02-05T19:32:11.114Z,7.10
2019-02-05T19:34:41.565Z,7.40
2019-02-05T19:37:11.963Z,7.40
2019-02-05T19:39:42.531Z,6.67
2019-02-05T19:42:18.181Z,6.47
2019-02-05T19:44:50.818Z,7.87
2019-02-05T19:47:21.416Z,7.10
2019-02-05T19:49:51.657Z,7.03
2019-02-05T19:52:22.080Z,6.63
2019-02-05T19:54:52.535Z,6.93
2019-02-05T19:57:22.921Z,6.73
2019-02-05T19:59:53.392Z,6.90
2019-02-05T20:02:23.959Z,6.87
2019-02-05T20:04:54.392Z,6.43
2019-02-05T20:07:24.777Z,6.63
2019-02-05T20:09:55.351Z,6.97
2019-02-05T20:12:25.752Z,7.33
2019-02-05T20:14:56.087Z,7.33
2019-02-05T20:17:26.535Z,7.27
2019-02-05T20:19:57.071Z,8.00
2019-02-05T20:22:27.528Z,7.80
2019-02-05T20:24:58.875Z,8.37
2019-02-05T20:27:30.035Z,7.90
2019-02-05T20:30:06.355Z,7.17
2019-02-05T20:32:36.790Z,8.43
2019-02-05T20:35:07.181Z,8.33
2019-02-05T20:37:41.886Z,7.87
2019-02-05T20:40:26.179Z,7.43
2019-02-05T20:42:56.491Z,6.90
2019-02-05T20:45:34.105Z,6.97
2019-02-05T20:48:05.256Z,7.13
2019-02-05T20:50:47.746Z,7.20
2019-02-05T20:53:25.310Z,6.47
2019-02-05T20:55:55.629Z,6.33
2019-02-05T20:58:26.050Z,6.40
2019-02-05T21:00:56.459Z,7.00
2019-02-05T21:03:26.952Z,6.40
2019-02-05T21:06:04.712Z,6.00
2019-02-05T21:08:35.039Z,5.60
2019-02-05T21:11:11.049Z,6.23
2019-02-05T21:13:41.511Z,6.40
2019-02-05T21:16:13.966Z,5.83
2019-02-05T21:18:44.342Z,5.83
2019-02-05T21:21:14.741Z,5.67
2019-02-05T21:23:45.936Z,5.43
2019-02-05T21:26:16.266Z,5.63
2019-02-05T21:28:52.639Z,5.80
2019-02-05T21:31:23.032Z,5.30
2019-02-05T21:33:53.472Z,5.40
2019-02-05T21:36:30.002Z,5.27
2019-02-05T21:39:01.219Z,5.93
2019-02-05T21:41:31.545Z,5.07
2019-02-05T21:44:01.919Z,5.10
2019-02-05T21:46:32.573Z,4.87
2019-02-05T21:49:10.124Z,5.13
2019-02-05T21:51:42.084Z,4.87
2019-02-05T21:54:11.854Z,5.00
2019-02-05T21:56:43.397Z,5.30
2019-02-05T21:59:13.808Z,5.07
2019-02-05T22:01:44.933Z,5.07
2019-02-05T22:04:26.433Z,5.13
2019-02-05T22:06:45.695Z,5.30
2019-02-05T22:09:16.100Z,4.87
2019-02-05T22:11:46.394Z,5.27
2019-02-05T22:14:17.010Z,5.50
2019-02-05T22:17:06.778Z,5.50
2019-02-05T22:19:37.393Z,5.73
2019-02-05T22:24:51.052Z,4.87
2019-02-05T22:27:21.666Z,4.80
2019-02-05T22:29:52.834Z,5.20
2019-02-05T22:32:23.224Z,5.40
2019-02-05T22:34:53.719Z,5.27
2019-02-05T22:37:24.100Z,5.23
2019-02-05T22:39:54.537Z,5.87
2019-02-05T22:42:24.958Z,5.30
2019-02-05T22:44:55.339Z,6.33
2019-02-05T22:47:25.725Z,6.13
2019-02-05T22:49:56.177Z,5.93
2019-02-05T22:52:26.545Z,5.90
2019-02-05T22:54:57.706Z,6.00
2019-02-05T22:57:28.157Z,6.77
2019-02-05T22:59:58.602Z,6.50
2019-02-05T23:02:28.976Z,6.80
2019-02-05T23:05:01.349Z,5.90
2019-02-05T23:07:31.742Z,6.47
2019-02-05T23:10:02.194Z,5.93
2019-02-05T23:12:32.585Z,5.50
2019-02-05T23:15:14.198Z,5.80
2019-02-05T23:17:44.576Z,5.40
2019-02-05T23:20:14.962Z,6.20
2019-02-05T23:22:45.388Z,5.97
2019-02-05T23:25:15.722Z,6.17
2019-02-05T23:27:46.115Z,6.27
2019-02-05T23:30:19.417Z,6.10
2019-02-05T23:32:49.987Z,5.90
2019-02-05T23:35:20.365Z,5.53
2019-02-05T23:37:50.768Z,5.77
2019-02-05T23:40:21.189Z,5.93
2019-02-05T23:42:51.761Z,5.40
2019-02-05T23:45:22.148Z,5.50
2019-02-05T23:47:52.598Z,4.77
2019-02-05T23:50:25.072Z,4.30
2019-02-05T23:53:16.870Z,4.77
2019-02-05T23:55:47.505Z,4.20
2019-02-05T23:58:17.892Z,4.60
